createdAt,value
2023-01-03T00:00:59.198Z,101873.53
2023-01-03T00:05:59.420Z,101874.69
2023-01-03T00:10:58.160Z,101877.31
2023-01-03T00:15:57.257Z,101870.34
2023-01-03T00:20:56.054Z,101865.19
2023-01-03T00:25:56.195Z,101867.09
2023-01-03T00:30:55.020Z,101857.59
2023-01-03T00:35:53.776Z,101865.50
2023-01-03T00:40:52.761Z,101872.59
2023-01-03T00:45:53.125Z,101868.31
2023-01-03T00:50:52.185Z,101869.25
2023-01-03T00:55:51.288Z,101858.81
2023-01-03T01:00:50.249Z,101850.28
2023-01-03T01:05:50.509Z,101841.72
2023-01-03T01:11:02.919Z,101854.81
2023-01-03T01:16:06.646Z,101852.31
2023-01-03T01:21:08.407Z,101845.34
2023-01-03T01:26:08.869Z,101844.56
2023-01-03T01:31:09.053Z,101851.59
2023-01-03T01:36:10.512Z,101847.38
2023-01-03T01:41:09.369Z,101844.84
2023-01-03T01:46:17.471Z,101837.13
2023-01-03T01:51:19.472Z,101841.53
2023-01-03T01:56:22.693Z,101827.63
2023-01-03T02:01:23.329Z,101824.19
2023-01-03T02:06:25.470Z,101821.00
2023-01-03T02:11:32.689Z,101815.00
2023-01-03T02:16:48.508Z,101818.53
2023-01-03T02:22:37.684Z,101815.16
2023-01-03T02:28:21.009Z,101814.41
2023-01-03T02:33:31.375Z,101818.84
2023-01-03T02:38:42.634Z,101809.34
2023-01-03T02:43:49.061Z,101805.09
2023-01-03T02:48:55.559Z,101813.91
2023-01-03T02:53:54.650Z,101804.28
2023-01-03T02:58:58.025Z,101804.38
2023-01-03T03:03:59.440Z,101802.69
2023-01-03T03:08:58.496Z,101799.22
2023-01-03T03:14:01.876Z,101802.00
2023-01-03T03:19:03.386Z,101800.28
2023-01-03T03:24:26.512Z,101800.34
2023-01-03T03:29:27.991Z,101796.91
2023-01-03T03:34:32.219Z,101802.28
2023-01-03T03:39:50.152Z,101800.59
2023-01-03T03:45:02.982Z,101805.03
2023-01-03T03:50:07.618Z,101815.66
2023-01-03T03:55:13.206Z,101800.97
2023-01-03T04:00:17.385Z,101809.75
2023-01-03T04:05:20.610Z,101815.91
2023-01-03T04:10:20.832Z,101819.41
2023-01-03T04:15:19.965Z,101816.78
2023-01-03T04:20:20.707Z,101808.16
2023-01-03T04:25:19.493Z,101804.81
2023-01-03T04:30:18.620Z,101810.94
2023-01-03T04:35:17.489Z,101817.97
2023-01-03T04:40:17.834Z,101812.84
2023-01-03T04:45:17.253Z,101813.84
2023-01-03T04:50:16.157Z,101816.50
2023-01-03T04:55:14.960Z,101815.75
2023-01-03T05:00:16.264Z,101812.38
2023-01-03T05:05:15.165Z,101819.38
2023-01-03T05:10:14.071Z,101813.19
2023-01-03T05:15:14.381Z,101822.69
2023-01-03T05:20:30.801Z,101823.47
2023-01-03T05:25:47.321Z,101826.03
2023-01-03T05:30:47.496Z,101832.03
2023-01-03T05:35:48.583Z,101835.47
2023-01-03T05:40:47.567Z,101841.66
2023-01-03T05:45:51.651Z,101836.41
2023-01-03T05:50:52.412Z,101839.97
2023-01-03T05:55:51.690Z,101834.88
2023-01-03T06:00:51.929Z,101835.94
2023-01-03T06:05:50.780Z,101843.75
2023-01-03T06:10:49.630Z,101847.22
2023-01-03T06:16:08.683Z,101848.22
2023-01-03T06:21:09.256Z,101849.97
2023-01-03T06:26:08.190Z,101856.94
2023-01-03T06:31:07.666Z,101855.16
2023-01-03T06:36:10.601Z,101862.91
2023-01-03T06:41:09.445Z,101861.91
2023-01-03T06:46:25.958Z,101864.47
2023-01-03T06:51:44.910Z,101860.16
2023-01-03T06:56:43.691Z,101866.38
2023-01-03T07:01:42.898Z,101875.09
2023-01-03T07:06:43.493Z,101872.38
2023-01-03T07:11:43.216Z,101868.69
2023-01-03T07:16:45.398Z,101874.72
2023-01-03T07:21:46.268Z,101873.88
2023-01-03T07:26:46.961Z,101873.59
2023-01-03T07:31:45.829Z,101875.22
2023-01-03T07:36:46.080Z,101889.31
2023-01-03T07:42:02.368Z,101878.88
2023-01-03T07:47:01.256Z,101882.34
2023-01-03T07:52:01.544Z,101882.75
2023-01-03T07:57:01.111Z,101870.38
2023-01-03T08:02:00.042Z,101869.22
2023-01-03T08:06:59.068Z,101858.38
2023-01-03T08:12:16.559Z,101860.63
2023-01-03T08:17:15.369Z,101870.63
2023-01-03T08:22:14.286Z,101885.66
2023-01-03T08:27:14.664Z,101893.16
2023-01-03T08:32:14.044Z,101887.63
2023-01-03T08:37:17.052Z,101888.88
2023-01-03T08:42:21.226Z,101890.63
2023-01-03T08:47:20.827Z,101887.75
2023-01-03T08:52:19.707Z,101885.66
2023-01-03T08:57:20.074Z,101886.75
2023-01-03T09:02:18.995Z,101868.22
2023-01-03T09:07:17.918Z,101858.94
2023-01-03T09:12:16.701Z,101836.28
2023-01-03T09:17:16.863Z,101838.56
2023-01-03T09:22:15.620Z,101835.91
2023-01-03T09:27:14.439Z,101833.13
2023-01-03T09:32:13.335Z,101828.72
2023-01-03T09:37:13.606Z,101821.56
2023-01-03T09:42:38.390Z,101809.75
2023-01-03T09:47:40.314Z,101807.72
2023-01-03T09:53:05.281Z,101800.63
2023-01-03T09:58:21.834Z,101787.84
2023-01-03T10:03:54.524Z,101776.03
2023-01-03T10:09:08.165Z,101781.78
2023-01-03T10:14:30.107Z,101770.09
2023-01-03T10:19:50.825Z,101760.47
2023-01-03T10:24:57.130Z,101761.47
2023-01-03T10:30:01.487Z,101753.84
2023-01-03T10:35:18.581Z,101744.88
2023-01-03T10:40:19.200Z,101742.03
2023-01-03T10:45:20.898Z,101729.41
2023-01-03T10:50:23.442Z,101727.16
2023-01-03T10:55:26.530Z,101727.66
2023-01-03T11:00:29.848Z,101729.03
2023-01-03T11:05:32.199Z,101713.94
2023-01-03T11:10:38.287Z,101713.09
2023-01-03T11:15:39.753Z,101694.38
2023-01-03T11:20:45.189Z,101699.06
2023-01-03T11:25:52.866Z,101695.06
2023-01-03T11:30:59.295Z,101697.16
2023-01-03T11:36:11.224Z,101688.72
2023-01-03T11:41:27.635Z,101679.91
2023-01-03T11:46:47.277Z,101687.84
2023-01-03T11:51:54.012Z,101677.94
2023-01-03T11:56:54.635Z,101673.56
2023-01-03T12:02:17.841Z,101673.59
2023-01-03T12:07:47.058Z,101672.03
2023-01-03T12:13:06.284Z,101670.59
2023-01-03T12:18:14.076Z,101665.00
2023-01-03T12:23:20.486Z,101656.09
2023-01-03T12:28:27.653Z,101653.88
2023-01-03T12:33:32.674Z,101658.19
2023-01-03T12:38:37.615Z,101644.56
2023-01-03T12:43:52.490Z,101648.34
2023-01-03T12:48:59.540Z,101644.59
2023-01-03T12:54:17.821Z,101644.63
2023-01-03T12:59:39.378Z,101644.84
2023-01-03T13:04:43.246Z,101672.38
2023-01-03T13:09:46.965Z,101666.88
2023-01-03T13:14:55.479Z,101667.00
2023-01-03T13:19:57.472Z,101670.97
2023-01-03T13:24:56.413Z,101668.28
2023-01-03T13:30:02.338Z,101668.78
2023-01-03T13:35:33.459Z,101675.50
2023-01-03T13:41:16.159Z,101668.56
2023-01-03T13:45:56.324Z,101669.91
2023-01-03T13:51:09.091Z,101668.69
2023-01-03T13:56:24.794Z,101666.00
2023-01-03T14:01:39.168Z,101671.03
2023-01-03T14:07:06.388Z,101666.31
2023-01-03T14:12:43.552Z,101668.88
2023-01-03T14:17:48.501Z,101672.25
2023-01-03T14:22:50.494Z,101676.09
2023-01-03T14:27:49.599Z,101678.06
2023-01-03T14:32:49.859Z,101673.31
2023-01-03T14:37:48.814Z,101681.88
2023-01-03T14:42:48.201Z,101677.78
2023-01-03T14:47:47.926Z,101677.06
2023-01-03T14:52:52.962Z,101682.84
2023-01-03T14:57:52.880Z,101685.41
2023-01-03T15:02:52.309Z,101690.53
2023-01-03T15:07:53.108Z,101691.25
2023-01-03T15:13:00.745Z,101686.31
2023-01-03T15:18:05.235Z,101689.56
2023-01-03T15:23:06.121Z,101698.09
2023-01-03T15:28:24.592Z,101699.09
2023-01-03T15:33:33.237Z,101703.13
2023-01-03T15:38:37.652Z,101707.25
2023-01-03T15:43:39.339Z,101719.75
2023-01-03T15:48:38.473Z,101711.63
2023-01-03T15:53:44.591Z,101725.44
2023-01-03T15:58:48.042Z,101726.78
2023-01-03T16:03:58.150Z,101735.06
2023-01-03T16:08:58.423Z,101734.66
2023-01-03T16:13:59.747Z,101740.53
2023-01-03T16:18:59.296Z,101745.59
2023-01-03T16:23:59.676Z,101747.06
2023-01-03T16:28:59.529Z,101759.75
2023-01-03T16:34:09.127Z,101762.69
2023-01-03T16:39:16.457Z,101773.56
2023-01-03T16:44:15.245Z,101772.84
2023-01-03T16:49:14.212Z,101765.13
2023-01-03T16:54:16.540Z,101782.22
2023-01-03T16:59:16.178Z,101787.00
2023-01-03T17:04:15.174Z,101780.28
2023-01-03T17:09:17.620Z,101785.78
2023-01-03T17:14:20.093Z,101792.13
2023-01-03T17:20:01.906Z,101788.69
2023-01-03T17:24:41.539Z,101786.25
2023-01-03T17:29:41.563Z,101799.72
2023-01-03T17:34:40.336Z,101805.28
2023-01-03T17:39:40.641Z,101806.78
2023-01-03T17:44:39.536Z,101805.34
2023-01-03T17:49:37.277Z,101802.19
2023-01-03T17:54:40.475Z,101821.75
2023-01-03T17:59:42.241Z,101811.50
2023-01-03T18:05:14.214Z,101822.31
2023-01-03T18:10:06.666Z,101813.84
2023-01-03T18:15:18.220Z,101819.53
2023-01-03T18:20:31.860Z,101824.16
2023-01-03T18:25:33.087Z,101835.84
2023-01-03T18:30:35.093Z,101842.31
2023-01-03T18:35:39.054Z,101840.91
2023-01-03T18:40:43.641Z,101843.81
2023-01-03T18:45:44.174Z,101840.63
2023-01-03T18:50:43.914Z,101853.19
2023-01-03T18:55:43.324Z,101849.94
2023-01-03T19:00:43.732Z,101847.56
2023-01-03T19:05:42.744Z,101849.59
2023-01-03T19:10:41.723Z,101835.72
2023-01-03T19:15:40.558Z,101847.34
2023-01-03T19:20:40.894Z,101850.13
2023-01-03T19:25:39.866Z,101853.84
2023-01-03T19:30:40.511Z,101851.44
2023-01-03T19:35:40.785Z,101866.50
2023-01-03T19:40:41.471Z,101861.34
2023-01-03T19:45:42.562Z,101873.72
2023-01-03T19:50:42.840Z,101868.63
2023-01-03T19:55:44.132Z,101868.72
2023-01-03T20:00:46.010Z,101875.91
2023-01-03T20:05:49.295Z,101887.41
2023-01-03T20:10:53.845Z,101880.56
2023-01-03T20:15:58.072Z,101895.63
2023-01-03T20:21:02.342Z,101893.41
2023-01-03T20:26:06.885Z,101901.41
2023-01-03T20:31:08.817Z,101902.50
2023-01-03T20:36:23.136Z,101906.22
2023-01-03T20:41:37.590Z,101916.94
2023-01-03T20:46:43.574Z,101919.84
2023-01-03T20:51:46.129Z,101906.81
2023-01-03T20:56:48.268Z,101907.03
2023-01-03T21:01:50.836Z,101909.00
2023-01-03T21:06:52.927Z,101910.97
2023-01-03T21:11:52.708Z,101905.84
2023-01-03T21:16:54.011Z,101914.06
2023-01-03T21:22:07.046Z,101917.81
2023-01-03T21:27:06.506Z,101922.47
2023-01-03T21:32:13.233Z,101922.69
2023-01-03T21:37:19.272Z,101923.72
2023-01-03T21:42:35.607Z,101927.28
2023-01-03T21:47:34.389Z,101931.16
2023-01-03T21:52:34.704Z,101948.03
2023-01-03T21:57:35.547Z,101933.41
2023-01-03T22:02:56.216Z,101929.19
2023-01-03T22:08:01.119Z,101923.25
2023-01-03T22:13:02.265Z,101925.28
2023-01-03T22:18:01.132Z,101918.88
2023-01-03T22:23:01.379Z,101922.59
2023-01-03T22:28:00.165Z,101916.59
2023-01-03T22:32:59.712Z,101921.88
2023-01-03T22:37:58.521Z,101907.88
2023-01-03T22:42:58.699Z,101911.34
2023-01-03T22:47:59.268Z,101919.16
2023-01-03T22:52:58.104Z,101927.09
2023-01-03T22:57:58.193Z,101927.91
2023-01-03T23:02:57.103Z,101936.66
2023-01-03T23:07:55.886Z,101933.16
2023-01-03T23:13:00.822Z,101918.25
2023-01-03T23:18:01.022Z,101942.81
2023-01-03T23:23:04.416Z,101945.53
2023-01-03T23:28:02.960Z,101954.28
2023-01-03T23:33:03.076Z,101961.63
2023-01-03T23:38:01.846Z,101959.97
2023-01-03T23:43:00.951Z,101959.13
2023-01-03T23:48:00.337Z,101960.88
2023-01-03T23:53:00.782Z,101953.97
2023-01-03T23:57:59.547Z,101973.28
